Time;durP1;ratioP1;P1;durP2;ratioP2;P2;SDS_P1;SDS_P2;PMS_P1;PMS_P2;Temp;Humidity;BMP_temperature;BMP_pressure;BME280_temperature;BME280_humidity;BME280_pressure;Samples;Min_cycle;Max_cycle;Signal;HPM_P1;HPM_P2
2022/08/07 00:00:57;;;;;;;3.78;2.17;;;12.90;90.70;;;;;;5012047;28;20033;-69
2022/08/07 00:03:24;;;;;;;4.13;2.13;;;12.80;90.90;;;;;;5029876;28;20033;-67
2022/08/07 00:05:51;;;;;;;2.90;2.25;;;12.80;91.00;;;;;;5014669;28;20421;-70
2022/08/07 00:08:18;;;;;;;4.47;2.05;;;12.70;91.00;;;;;;5030996;28;20029;-70
2022/08/07 00:10:44;;;;;;;4.03;1.92;;;12.70;91.10;;;;;;5032231;28;20033;-63
2022/08/07 00:13:10;;;;;;;3.80;1.90;;;12.60;91.30;;;;;;5029293;28;20064;-60
2022/08/07 00:15:36;;;;;;;4.25;1.88;;;12.60;91.30;;;;;;5024609;28;20026;-62
2022/08/07 00:18:02;;;;;;;3.08;2.17;;;12.60;91.30;;;;;;5031278;28;20033;-64
2022/08/07 00:20:28;;;;;;;2.58;1.73;;;12.60;91.40;;;;;;5030468;28;20128;-62
2022/08/07 00:22:53;;;;;;;4.82;1.83;;;12.50;91.50;;;;;;5030147;28;20113;-65
2022/08/07 00:25:19;;;;;;;2.67;2.00;;;12.50;91.50;;;;;;5015352;28;20022;-62
2022/08/07 00:27:44;;;;;;;3.60;2.13;;;12.40;92.00;;;;;;5025771;28;20470;-61
2022/08/07 00:30:10;;;;;;;3.90;2.10;;;12.40;91.90;;;;;;5033609;28;20029;-63
2022/08/07 00:32:36;;;;;;;3.92;2.00;;;12.40;92.00;;;;;;5033621;28;20518;-61
2022/08/07 00:35:02;;;;;;;3.13;1.92;;;12.30;92.10;;;;;;5033502;28;20052;-64
2022/08/07 00:37:28;;;;;;;4.95;2.15;;;12.20;92.20;;;;;;5034438;28;20042;-63
2022/08/07 00:39:53;;;;;;;3.55;2.08;;;12.10;92.40;;;;;;5016249;28;20060;-68
2022/08/07 00:42:20;;;;;;;4.43;2.28;;;12.10;92.50;;;;;;5048396;28;20041;-69
2022/08/07 00:44:45;;;;;;;3.63;2.28;;;12.00;92.70;;;;;;5036316;28;20032;-65
2022/08/07 00:47:11;;;;;;;2.55;1.77;;;12.00;93.00;;;;;;5054361;28;20029;-67
2022/08/07 00:49:37;;;;;;;3.40;1.77;;;11.90;93.00;;;;;;5054777;28;20021;-64
2022/08/07 00:52:07;;;;;;;3.50;2.03;;;11.90;93.00;;;;;;5053698;28;20159;-63
2022/08/07 00:54:33;;;;;;;7.18;2.10;;;11.80;93.00;;;;;;5054438;28;20389;-63
2022/08/07 00:56:58;;;;;;;3.97;1.75;;;11.80;93.10;;;;;;5036408;28;20116;-64
2022/08/07 00:59:26;;;;;;;2.83;1.83;;;11.80;93.20;;;;;;5053867;28;20048;-69
2022/08/07 01:01:52;;;;;;;3.25;2.10;;;11.80;93.30;;;;;;5054137;28;20167;-59
2022/08/07 01:04:19;;;;;;;3.95;2.22;;;11.80;93.30;;;;;;5054445;28;20100;-61
2022/08/07 01:06:44;;;;;;;3.13;2.15;;;11.80;93.40;;;;;;5053690;28;20424;-60
2022/08/07 01:09:10;;;;;;;3.53;2.28;;;11.80;93.60;;;;;;5053998;28;20730;-59
2022/08/07 01:11:37;;;;;;;3.55;2.65;;;11.70;93.60;;;;;;5054026;28;20055;-60
2022/08/07 01:14:03;;;;;;;4.97;2.58;;;11.70;94.00;;;;;;5053304;28;20025;-59
2022/08/07 01:16:29;;;;;;;2.72;2.10;;;11.70;93.90;;;;;;5053867;28;20082;-60
2022/08/07 01:18:56;;;;;;;4.82;2.30;;;11.60;93.90;;;;;;5053838;28;20021;-60
2022/08/07 01:21:25;;;;;;;3.40;2.00;;;11.60;94.10;;;;;;5035520;28;20094;-60
2022/08/07 01:23:53;;;;;;;3.75;2.22;;;11.60;94.10;;;;;;5053635;28;20448;-60
2022/08/07 01:26:21;;;;;;;3.83;1.95;;;11.50;94.00;;;;;;5054095;28;20021;-61
2022/08/07 01:28:48;;;;;;;4.57;2.38;;;11.50;94.10;;;;;;5053297;28;20102;-61
2022/08/07 01:31:16;;;;;;;5.18;2.80;;;11.50;94.20;;;;;;5053953;28;20032;-60
2022/08/07 01:33:42;;;;;;;5.15;2.58;;;11.40;94.40;;;;;;5035203;28;20053;-60
2022/08/07 01:36:09;;;;;;;4.03;2.42;;;11.40;94.30;;;;;;5053358;28;20091;-60
2022/08/07 01:38:36;;;;;;;4.70;2.88;;;11.40;94.40;;;;;;5053787;28;20017;-60
2022/08/07 01:41:04;;;;;;;4.32;2.60;;;11.40;94.30;;;;;;5052678;28;20037;-60
2022/08/07 01:43:30;;;;;;;5.18;2.45;;;11.30;94.50;;;;;;5053576;28;20021;-60
2022/08/07 01:45:56;;;;;;;6.22;2.60;;;11.30;94.60;;;;;;5053224;28;20025;-60
2022/08/07 01:48:23;;;;;;;4.57;2.53;;;11.30;94.70;;;;;;5053324;28;20106;-71
2022/08/07 01:50:54;;;;;;;3.90;2.33;;;11.30;94.70;;;;;;5053490;28;20025;-66
2022/08/07 01:53:22;;;;;;;4.82;2.60;;;11.20;94.70;;;;;;5053682;28;20021;-70
2022/08/07 01:55:55;;;;;;;5.82;3.08;;;11.20;94.90;;;;;;5053077;28;20017;-68
2022/08/07 01:58:22;;;;;;;7.68;3.28;;;11.20;95.00;;;;;;5053699;28;20048;-70
2022/08/07 02:00:54;;;;;;;4.40;2.60;;;11.10;95.10;;;;;;5053461;28;20028;-68
2022/08/07 02:03:22;;;;;;;5.95;3.20;;;11.10;95.00;;;;;;5052968;28;20059;-71
2022/08/07 02:05:57;;;;;;;6.10;3.15;;;11.10;95.10;;;;;;5053390;28;20025;-67
2022/08/07 02:08:25;;;;;;;4.95;2.90;;;11.10;95.30;;;;;;5053682;28;20036;-68
2022/08/07 02:10:55;;;;;;;6.28;3.30;;;11.10;95.50;;;;;;5052400;28;20025;-70
2022/08/07 02:13:23;;;;;;;5.63;3.35;;;11.10;95.60;;;;;;5052926;28;20035;-67
2022/08/07 02:15:51;;;;;;;5.53;2.80;;;11.00;95.70;;;;;;5052543;28;20088;-69
2022/08/07 02:18:18;;;;;;;5.00;3.05;;;11.00;95.60;;;;;;5053508;28;20480;-69
2022/08/07 02:20:48;;;;;;;6.43;3.35;;;11.00;95.60;;;;;;5053061;28;20025;-71
2022/08/07 02:23:15;;;;;;;6.15;3.00;;;10.90;95.60;;;;;;5052527;28;20036;-70
2022/08/07 02:25:42;;;;;;;5.22;3.13;;;10.90;95.60;;;;;;5053196;28;20029;-68
2022/08/07 02:28:10;;;;;;;6.47;3.38;;;10.90;95.80;;;;;;5052749;28;20031;-70
2022/08/07 02:30:37;;;;;;;6.88;3.17;;;10.80;95.90;;;;;;5052301;28;20062;-70
2022/08/07 02:33:04;;;;;;;5.97;3.25;;;10.80;95.90;;;;;;5052687;28;20405;-66
2022/08/07 02:35:33;;;;;;;5.43;2.97;;;10.80;96.00;;;;;;5052681;28;20179;-68
2022/08/07 02:38:01;;;;;;;5.25;3.22;;;10.70;96.10;;;;;;5051855;28;20024;-64
2022/08/07 02:40:27;;;;;;;5.65;3.67;;;10.70;96.30;;;;;;5052685;28;20053;-64
2022/08/07 02:42:54;;;;;;;6.63;3.28;;;10.70;96.30;;;;;;5052058;28;20099;-65
2022/08/07 02:45:24;;;;;;;5.75;3.45;;;10.70;96.30;;;;;;5051850;28;20075;-64
2022/08/07 02:47:50;;;;;;;5.95;3.60;;;10.70;96.40;;;;;;5034261;28;20071;-65
2022/08/07 02:50:16;;;;;;;7.72;3.05;;;10.70;96.30;;;;;;5051899;28;20021;-65
2022/08/07 02:52:54;;;;;;;6.63;3.50;;;10.60;96.30;;;;;;5033952;28;20636;-67
2022/08/07 02:55:22;;;;;;;6.93;3.10;;;10.60;96.40;;;;;;5052403;28;20021;-63
2022/08/07 02:57:50;;;;;;;6.10;3.30;;;10.60;96.40;;;;;;5052408;28;20037;-63
2022/08/07 03:00:16;;;;;;;5.55;3.28;;;10.60;96.40;;;;;;5051497;28;20481;-69
2022/08/07 03:02:45;;;;;;;5.47;3.15;;;10.60;96.50;;;;;;5051992;28;20068;-60
2022/08/07 03:05:13;;;;;;;5.70;3.25;;;10.60;96.60;;;;;;5051289;28;20110;-63
2022/08/07 03:07:40;;;;;;;5.90;3.65;;;10.60;96.70;;;;;;5052074;28;20037;-61
2022/08/07 03:10:08;;;;;;;6.18;3.08;;;10.60;96.90;;;;;;5051628;28;20057;-60
2022/08/07 03:12:35;;;;;;;8.10;3.47;;;10.50;96.80;;;;;;5051020;28;20025;-60
2022/08/07 03:15:02;;;;;;;4.60;2.92;;;10.50;96.70;;;;;;5051649;28;20519;-61
2022/08/07 03:17:28;;;;;;;6.50;3.25;;;10.40;96.70;;;;;;5051315;28;20131;-60
2022/08/07 03:19:54;;;;;;;6.82;3.58;;;10.40;96.80;;;;;;5050914;28;20032;-60
2022/08/07 03:22:22;;;;;;;5.93;3.80;;;10.40;96.80;;;;;;5051556;28;20476;-64
2022/08/07 03:24:48;;;;;;;6.00;3.45;;;10.30;96.90;;;;;;5033753;28;20021;-60
2022/08/07 03:27:14;;;;;;;7.05;3.58;;;10.30;96.90;;;;;;5050626;28;20435;-60
2022/08/07 03:29:45;;;;;;;5.28;3.35;;;10.30;96.90;;;;;;5051495;28;20021;-60
2022/08/07 03:32:13;;;;;;;6.43;3.45;;;10.30;96.90;;;;;;5051072;28;20051;-60
2022/08/07 03:34:42;;;;;;;6.47;3.47;;;10.30;96.90;;;;;;5032857;28;20071;-60
2022/08/07 03:37:09;;;;;;;7.47;3.22;;;10.30;97.10;;;;;;5051124;28;20048;-61
2022/08/07 03:39:37;;;;;;;8.20;3.88;;;10.30;97.00;;;;;;5033461;28;20454;-60
2022/08/07 03:42:04;;;;;;;6.03;3.35;;;10.30;97.10;;;;;;5050284;28;20478;-60
2022/08/07 03:44:32;;;;;;;6.97;3.47;;;10.30;97.10;;;;;;5051379;28;20025;-60
2022/08/07 03:46:59;;;;;;;7.57;3.78;;;10.30;97.00;;;;;;5050901;28;20393;-60
2022/08/07 03:49:25;;;;;;;6.22;3.30;;;10.30;97.10;;;;;;5050540;28;20475;-61
2022/08/07 03:51:51;;;;;;;7.43;3.67;;;10.30;97.10;;;;;;5050929;28;20033;-60
2022/08/07 03:54:17;;;;;;;7.03;3.72;;;10.30;97.20;;;;;;5050719;28;20029;-60
2022/08/07 03:56:44;;;;;;;9.00;4.15;;;10.30;97.10;;;;;;5051055;28;20025;-60
2022/08/07 03:59:12;;;;;;;6.65;3.72;;;10.30;97.10;;;;;;5050971;28;20013;-60
2022/08/07 04:01:41;;;;;;;8.27;3.33;;;10.30;97.20;;;;;;5050060;28;20083;-68
2022/08/07 04:04:07;;;;;;;7.82;3.70;;;10.20;97.20;;;;;;5051069;28;20047;-68
2022/08/07 04:06:34;;;;;;;5.53;3.15;;;10.20;97.10;;;;;;5051421;28;20473;-70
2022/08/07 04:09:01;;;;;;;6.25;3.75;;;10.20;97.30;;;;;;5050224;28;20029;-68
2022/08/07 04:11:27;;;;;;;7.10;3.78;;;10.10;97.20;;;;;;5050892;28;20404;-68
2022/08/07 04:13:54;;;;;;;6.60;3.70;;;10.10;97.20;;;;;;5032981;28;20437;-68
2022/08/07 04:16:20;;;;;;;6.78;3.85;;;10.10;97.30;;;;;;5050585;28;20063;-65
2022/08/07 04:18:46;;;;;;;5.65;3.38;;;10.00;97.20;;;;;;5051216;28;20080;-63
2022/08/07 04:21:12;;;;;;;5.95;3.40;;;10.00;97.20;;;;;;5050878;28;20477;-69
2022/08/07 04:23:39;;;;;;;6.70;3.60;;;10.00;97.30;;;;;;5050563;28;20116;-67
2022/08/07 04:26:06;;;;;;;6.35;3.38;;;10.00;97.30;;;;;;5050887;28;20025;-69
2022/08/07 04:28:32;;;;;;;6.38;3.58;;;10.00;97.30;;;;;;5050976;28;20044;-69
2022/08/07 04:30:59;;;;;;;8.77;4.40;;;10.00;97.50;;;;;;5050020;28;20029;-70
2022/08/07 04:33:25;;;;;;;7.00;4.15;;;10.00;97.60;;;;;;5035703;28;20021;-68
2022/08/07 04:35:52;;;;;;;8.88;3.83;;;10.00;97.60;;;;;;5030279;28;20215;-71
2022/08/07 04:38:18;;;;;;;6.90;3.80;;;10.00;97.60;;;;;;5030388;28;20166;-69
2022/08/07 04:40:44;;;;;;;7.65;4.45;;;10.10;97.50;;;;;;5030678;28;20022;-68
2022/08/07 04:43:11;;;;;;;7.75;4.55;;;10.10;97.60;;;;;;5012279;28;20041;-68
2022/08/07 04:45:36;;;;;;;7.15;4.50;;;10.20;97.70;;;;;;5010549;28;20100;-69
2022/08/07 04:48:11;;;;;;;8.43;4.40;;;10.20;97.70;;;;;;5017385;28;20061;-65
2022/08/07 04:50:59;;;;;;;7.97;4.68;;;10.20;97.70;;;;;;5030189;28;20025;-70
2022/08/07 04:53:57;;;;;;;8.55;4.03;;;10.20;97.80;;;;;;5030765;28;20168;-68
2022/08/07 04:56:36;;;;;;;7.68;3.50;;;10.20;97.70;;;;;;5030293;28;20038;-70
2022/08/07 04:59:13;;;;;;;7.38;3.47;;;10.30;97.50;;;;;;5030279;28;20048;-70
2022/08/07 05:01:41;;;;;;;8.15;4.22;;;10.40;97.40;;;;;;5030501;28;20037;-66
2022/08/07 05:04:20;;;;;;;7.50;4.03;;;10.50;97.30;;;;;;5033083;28;20025;-66
2022/08/07 05:06:59;;;;;;;8.07;3.80;;;10.60;97.30;;;;;;5022529;28;20056;-62
2022/08/07 05:09:37;;;;;;;10.48;4.80;;;10.70;97.50;;;;;;5028695;28;20030;-61
2022/08/07 05:12:05;;;;;;;8.95;4.78;;;10.70;97.30;;;;;;5027239;28;20359;-59
2022/08/07 05:14:36;;;;;;;8.40;4.72;;;10.80;97.50;;;;;;5019631;28;20034;-59
2022/08/07 05:17:03;;;;;;;9.07;4.70;;;10.90;97.50;;;;;;5015216;28;20050;-59
2022/08/07 05:19:37;;;;;;;8.80;4.82;;;10.90;97.30;;;;;;5036554;28;20029;-61
2022/08/07 05:22:05;;;;;;;10.93;5.22;;;11.00;97.30;;;;;;5029404;28;20037;-61
2022/08/07 05:24:32;;;;;;;9.90;5.57;;;11.10;97.20;;;;;;5015698;28;20026;-60
2022/08/07 05:27:00;;;;;;;8.88;4.65;;;11.20;97.20;;;;;;5013276;28;20022;-59
2022/08/07 05:29:28;;;;;;;9.18;4.90;;;11.30;97.00;;;;;;4998551;28;20018;-59
2022/08/07 05:31:55;;;;;;;10.48;5.40;;;11.40;97.00;;;;;;5014375;28;20033;-62
2022/08/07 05:34:23;;;;;;;11.50;6.22;;;11.50;96.90;;;;;;5018343;28;20409;-59
2022/08/07 05:36:51;;;;;;;11.10;6.18;;;11.60;96.80;;;;;;5014149;28;20037;-59
2022/08/07 05:39:19;;;;;;;10.10;5.53;;;11.70;96.80;;;;;;5017419;28;20486;-60
2022/08/07 05:41:47;;;;;;;9.98;4.95;;;11.80;96.70;;;;;;5027964;28;20057;-60
2022/08/07 05:44:17;;;;;;;12.70;6.20;;;11.80;96.70;;;;;;5020576;28;20036;-59
2022/08/07 05:46:43;;;;;;;13.77;6.07;;;11.90;96.70;;;;;;5033413;28;20409;-59
2022/08/07 05:49:12;;;;;;;9.75;5.70;;;12.00;96.50;;;;;;5022724;28;20482;-60
2022/08/07 05:51:40;;;;;;;10.73;5.50;;;12.10;96.50;;;;;;5014792;28;20047;-59
2022/08/07 05:54:06;;;;;;;10.65;5.70;;;12.20;96.50;;;;;;5031344;28;20028;-59
2022/08/07 05:56:33;;;;;;;10.40;5.47;;;12.20;96.50;;;;;;5020483;28;20033;-59
2022/08/07 05:59:01;;;;;;;12.52;6.20;;;12.30;96.40;;;;;;5013689;28;20113;-59
2022/08/07 06:01:29;;;;;;;11.73;5.88;;;12.40;96.40;;;;;;4996218;28;20046;-59
2022/08/07 06:03:56;;;;;;;9.27;5.65;;;12.50;96.30;;;;;;5026764;28;20025;-59
2022/08/07 06:06:23;;;;;;;11.15;6.20;;;12.60;96.30;;;;;;5012558;28;20033;-59
2022/08/07 06:08:51;;;;;;;12.70;6.35;;;12.60;96.20;;;;;;5017862;28;20085;-61
2022/08/07 06:11:17;;;;;;;12.35;7.38;;;12.80;96.20;;;;;;5031918;28;20036;-60
2022/08/07 06:13:42;;;;;;;11.98;6.57;;;12.80;96.10;;;;;;5016130;28;20461;-62
2022/08/07 06:16:09;;;;;;;11.60;6.40;;;12.90;96.00;;;;;;5030702;28;20163;-65
2022/08/07 06:18:35;;;;;;;13.77;8.00;;;13.00;95.90;;;;;;5028363;28;20048;-63
2022/08/07 06:21:02;;;;;;;13.23;7.30;;;13.10;95.90;;;;;;5025587;28;20025;-59
2022/08/07 06:23:29;;;;;;;18.05;8.60;;;13.20;95.80;;;;;;5016398;28;20041;-60
2022/08/07 06:25:55;;;;;;;12.85;7.35;;;13.30;95.60;;;;;;5025761;28;20747;-65
2022/08/07 06:28:21;;;;;;;12.40;7.10;;;13.40;95.40;;;;;;5031188;28;20195;-69
2022/08/07 06:30:46;;;;;;;13.82;7.75;;;13.50;95.30;;;;;;5020798;28;20419;-61
2022/08/07 06:33:12;;;;;;;11.18;6.95;;;13.50;95.20;;;;;;5024978;28;20549;-61
2022/08/07 06:35:37;;;;;;;12.05;7.35;;;13.60;95.00;;;;;;5025689;28;20506;-61
2022/08/07 06:38:04;;;;;;;16.35;8.57;;;13.70;94.80;;;;;;5017663;28;20109;-62
2022/08/07 06:40:36;;;;;;;11.45;6.80;;;13.70;94.80;;;;;;5026738;28;20107;-62
2022/08/07 06:43:04;;;;;;;12.45;7.13;;;13.70;94.80;;;;;;5017796;28;20038;-60
2022/08/07 06:45:32;;;;;;;13.05;7.30;;;13.80;94.60;;;;;;5031768;28;20021;-61
2022/08/07 06:47:58;;;;;;;14.10;7.70;;;13.90;94.50;;;;;;5020315;28;20038;-62
2022/08/07 06:50:24;;;;;;;14.80;8.18;;;14.00;94.50;;;;;;5030880;28;20127;-66
2022/08/07 06:52:52;;;;;;;14.05;7.53;;;14.10;94.40;;;;;;5031355;28;20080;-64
2022/08/07 06:55:27;;;;;;;14.18;7.30;;;14.20;94.30;;;;;;5030505;28;20018;-68
2022/08/07 06:57:58;;;;;;;11.95;7.22;;;14.30;94.10;;;;;;5021116;28;20029;-66
2022/08/07 07:00:25;;;;;;;17.93;7.73;;;14.40;93.80;;;;;;5052511;28;20101;-60
2022/08/07 07:02:51;;;;;;;14.98;6.93;;;14.50;94.00;;;;;;5041535;28;20311;-64
2022/08/07 07:05:20;;;;;;;14.85;8.23;;;14.60;93.60;;;;;;5031855;28;20029;-64
2022/08/07 07:07:46;;;;;;;15.82;7.30;;;14.70;93.50;;;;;;5032604;28;20037;-62
2022/08/07 07:10:13;;;;;;;13.85;7.57;;;14.80;93.30;;;;;;5031885;28;20025;-64
2022/08/07 07:12:47;;;;;;;13.00;7.28;;;14.90;93.10;;;;;;5031343;28;20025;-67
2022/08/07 07:15:26;;;;;;;12.45;6.82;;;15.00;92.90;;;;;;5031879;28;20025;-64
2022/08/07 07:18:08;;;;;;;11.40;6.18;;;15.10;92.90;;;;;;5031754;28;20040;-63
2022/08/07 07:21:00;;;;;;;13.38;6.80;;;15.30;92.40;;;;;;5031507;28;20025;-61
2022/08/07 07:23:28;;;;;;;13.27;7.03;;;15.40;92.00;;;;;;5024312;28;20128;-68
2022/08/07 07:25:58;;;;;;;12.82;6.65;;;15.50;91.70;;;;;;5025317;28;20112;-68
2022/08/07 07:28:39;;;;;;;11.98;6.53;;;15.60;91.30;;;;;;5015080;28;20029;-61
2022/08/07 07:31:32;;;;;;;11.80;6.32;;;15.70;90.80;;;;;;5032855;28;20465;-61
2022/08/07 07:34:03;;;;;;;11.52;6.55;;;15.90;90.60;;;;;;5050501;28;20125;-62
2022/08/07 07:36:31;;;;;;;9.85;6.15;;;16.00;90.30;;;;;;5051397;28;20520;-62
2022/08/07 07:38:59;;;;;;;10.73;5.63;;;16.10;90.10;;;;;;5051233;28;20471;-60
2022/08/07 07:41:26;;;;;;;8.95;5.32;;;16.10;90.00;;;;;;5033064;28;20052;-60
2022/08/07 07:43:54;;;;;;;11.65;5.95;;;16.20;89.90;;;;;;5050956;28;20033;-60
2022/08/07 07:46:22;;;;;;;9.02;5.38;;;16.30;89.00;;;;;;5048374;28;20021;-60
2022/08/07 07:48:53;;;;;;;9.50;5.35;;;16.40;88.70;;;;;;5031592;28;20030;-61
2022/08/07 07:51:20;;;;;;;9.50;5.80;;;16.60;87.90;;;;;;5031617;28;20045;-60
2022/08/07 07:53:47;;;;;;;8.50;4.95;;;16.70;87.10;;;;;;5030841;28;20466;-61
2022/08/07 07:56:14;;;;;;;9.98;5.38;;;16.90;86.40;;;;;;5031082;28;20033;-60
2022/08/07 07:58:42;;;;;;;9.55;5.18;;;17.00;85.90;;;;;;5013689;28;20021;-60
2022/08/07 08:01:09;;;;;;;8.38;4.97;;;17.00;85.00;;;;;;5030287;28;20482;-60
2022/08/07 08:03:37;;;;;;;10.00;5.20;;;17.20;85.00;;;;;;5031183;28;20036;-60
2022/08/07 08:06:05;;;;;;;6.28;4.00;;;17.30;84.20;;;;;;5030610;28;20013;-60
2022/08/07 08:08:32;;;;;;;9.10;3.95;;;17.50;83.60;;;;;;5030459;28;20057;-60
2022/08/07 08:11:05;;;;;;;9.38;4.63;;;17.60;82.10;;;;;;5030889;28;20017;-61
2022/08/07 08:13:32;;;;;;;6.45;4.07;;;17.70;81.60;;;;;;5030965;28;20118;-60
2022/08/07 08:16:00;;;;;;;8.10;4.60;;;17.80;81.00;;;;;;5030447;28;20028;-60
2022/08/07 08:18:28;;;;;;;6.68;3.67;;;17.90;79.80;;;;;;5031094;28;20057;-59
2022/08/07 08:20:54;;;;;;;7.25;3.75;;;18.00;78.70;;;;;;5012850;28;20017;-59
2022/08/07 08:28:54;;;;;;;6.65;3.40;;;18.30;76.70;;;;;;5030800;28;20068;-69
2022/08/07 08:31:24;;;;;;;6.07;3.17;;;18.40;75.90;;;;;;5031341;28;20122;-69
2022/08/07 08:33:53;;;;;;;5.97;2.83;;;18.50;72.10;;;;;;5030538;28;20386;-63
2022/08/07 08:36:22;;;;;;;7.95;3.47;;;18.60;72.60;;;;;;5030175;28;20056;-67
2022/08/07 08:38:49;;;;;;;5.80;3.20;;;18.60;71.10;;;;;;5030937;28;20323;-66
2022/08/07 08:41:30;;;;;;;5.75;3.22;;;18.70;72.00;;;;;;5030984;28;20509;-67
2022/08/07 08:44:06;;;;;;;6.18;3.00;;;18.80;71.50;;;;;;5029991;28;20038;-66
2022/08/07 08:46:53;;;;;;;5.78;3.15;;;18.90;71.50;;;;;;5028606;28;20030;-69
2022/08/07 08:49:35;;;;;;;6.30;2.95;;;19.00;72.00;;;;;;5033533;28;20084;-68
2022/08/07 08:52:23;;;;;;;5.53;2.10;;;19.10;71.90;;;;;;5033871;28;20060;-70
2022/08/07 08:55:00;;;;;;;6.30;2.90;;;19.30;71.70;;;;;;5034557;28;20022;-61
2022/08/07 08:57:31;;;;;;;7.68;3.50;;;19.30;71.60;;;;;;5034087;28;20018;-63
2022/08/07 09:00:03;;;;;;;5.25;3.15;;;19.30;68.90;;;;;;5022466;28;20049;-64
2022/08/07 09:02:37;;;;;;;5.38;2.55;;;19.30;69.20;;;;;;5015023;28;20061;-67
2022/08/07 09:05:33;;;;;;;3.28;1.88;;;19.30;68.70;;;;;;5016309;28;20415;-66
2022/08/07 09:08:27;;;;;;;4.78;2.47;;;19.40;68.40;;;;;;5014515;28;20030;-66
2022/08/07 09:11:08;;;;;;;5.68;2.53;;;19.50;68.70;;;;;;5013923;28;20040;-65
2022/08/07 09:13:45;;;;;;;5.05;2.72;;;19.50;69.40;;;;;;5014676;28;20030;-66
2022/08/07 09:16:18;;;;;;;6.18;2.85;;;19.60;67.10;;;;;;5014225;28;20429;-66
2022/08/07 09:18:56;;;;;;;7.45;3.15;;;19.60;65.70;;;;;;5013935;28;20022;-69
2022/08/07 09:21:32;;;;;;;5.05;2.80;;;19.70;65.00;;;;;;5014573;28;20118;-68
2022/08/07 09:24:09;;;;;;;5.60;2.95;;;19.70;65.00;;;;;;5016096;28;20339;-68
2022/08/07 09:26:46;;;;;;;4.28;1.90;;;19.80;65.00;;;;;;5013835;28;20030;-67
2022/08/07 09:29:39;;;;;;;5.82;3.00;;;19.90;65.20;;;;;;5014407;28;20030;-67
2022/08/07 09:32:22;;;;;;;5.45;2.60;;;20.00;63.50;;;;;;5003247;28;20037;-71
2022/08/07 09:34:56;;;;;;;6.28;2.70;;;20.00;62.20;;;;;;5023805;28;20033;-69
2022/08/07 09:37:39;;;;;;;4.18;2.20;;;20.10;62.60;;;;;;5026990;28;20116;-69
2022/08/07 09:40:14;;;;;;;5.07;2.65;;;20.20;62.80;;;;;;5013547;28;20118;-70
2022/08/07 09:42:54;;;;;;;5.22;2.40;;;20.40;61.60;;;;;;5013836;28;20042;-70
2022/08/07 09:45:41;;;;;;;4.50;2.00;;;20.50;60.80;;;;;;5022962;28;20379;-70
2022/08/07 09:48:21;;;;;;;4.22;2.03;;;20.60;60.90;;;;;;5032950;28;20033;-68
2022/08/07 09:50:55;;;;;;;6.00;2.50;;;20.60;61.20;;;;;;5032159;28;20125;-63
2022/08/07 09:53:24;;;;;;;5.28;2.53;;;20.70;59.70;;;;;;5032700;28;20548;-62
2022/08/07 09:56:34;;;;;;;3.50;1.85;;;20.70;59.00;;;;;;5032846;28;20080;-60
2022/08/07 09:59:02;;;;;;;4.07;2.20;;;20.80;59.40;;;;;;5016835;28;20032;-61
2022/08/07 10:01:35;;;;;;;7.03;3.17;;;20.80;59.80;;;;;;5030778;28;20060;-60
2022/08/07 10:04:43;;;;;;;3.70;2.45;;;20.90;58.30;;;;;;5014598;28;20034;-61
2022/08/07 10:07:17;;;;;;;5.07;2.25;;;21.00;58.50;;;;;;5012566;28;20061;-60
2022/08/07 10:10:00;;;;;;;3.83;1.77;;;21.00;59.10;;;;;;5013145;28;20022;-59
2022/08/07 10:12:35;;;;;;;4.07;2.20;;;21.10;59.30;;;;;;5031934;28;20037;-59
2022/08/07 10:15:31;;;;;;;6.00;2.70;;;21.20;58.70;;;;;;5032075;28;20013;-58
2022/08/07 10:18:14;;;;;;;3.53;1.98;;;21.30;57.20;;;;;;5032480;28;20021;-59
2022/08/07 10:21:01;;;;;;;5.63;2.45;;;21.40;56.30;;;;;;5012962;28;20030;-60
2022/08/07 10:23:50;;;;;;;4.18;2.33;;;21.40;55.00;;;;;;5014955;28;20033;-60
2022/08/07 10:26:28;;;;;;;5.70;2.60;;;21.40;55.10;;;;;;5032557;28;20063;-59
2022/08/07 10:29:14;;;;;;;6.35;2.15;;;21.40;55.60;;;;;;5031607;28;20092;-59
2022/08/07 10:32:05;;;;;;;5.35;2.30;;;21.50;56.00;;;;;;5031959;28;20478;-59
2022/08/07 10:34:49;;;;;;;2.90;1.73;;;21.60;55.00;;;;;;5028258;28;20494;-59
2022/08/07 10:37:40;;;;;;;5.65;2.80;;;21.70;55.30;;;;;;5015072;28;20049;-59
2022/08/07 10:40:28;;;;;;;3.75;2.00;;;21.80;55.50;;;;;;5012518;28;20018;-59
2022/08/07 10:43:12;;;;;;;2.65;1.92;;;22.00;55.60;;;;;;5011828;28;20034;-68
2022/08/07 10:45:45;;;;;;;4.25;2.08;;;22.20;54.10;;;;;;5012854;28;20029;-63
2022/08/07 10:48:26;;;;;;;4.32;2.60;;;22.40;53.60;;;;;;5012173;28;20064;-68
2022/08/07 10:51:01;;;;;;;4.40;2.00;;;22.50;54.20;;;;;;5010445;28;20367;-66
2022/08/07 10:53:40;;;;;;;3.63;2.20;;;22.60;53.00;;;;;;5012620;28;20026;-68
2022/08/07 10:56:31;;;;;;;3.00;1.80;;;22.60;52.60;;;;;;5024021;28;20026;-64
2022/08/07 10:59:26;;;;;;;3.55;1.83;;;22.50;52.80;;;;;;5012371;28;20113;-69
2022/08/07 11:02:00;;;;;;;3.67;2.15;;;22.30;53.10;;;;;;5011983;28;20025;-68
2022/08/07 11:04:44;;;;;;;4.03;2.08;;;22.20;53.30;;;;;;5018107;28;20045;-69
2022/08/07 11:07:17;;;;;;;4.00;2.28;;;22.10;53.20;;;;;;5012072;28;20067;-60
2022/08/07 11:09:55;;;;;;;3.38;2.20;;;22.00;53.40;;;;;;5026090;28;20037;-65
2022/08/07 11:12:33;;;;;;;4.15;2.13;;;22.10;55.00;;;;;;5029959;28;20113;-67
2022/08/07 11:15:11;;;;;;;2.70;1.80;;;22.30;54.20;;;;;;5022255;28;20037;-65
2022/08/07 11:17:48;;;;;;;2.53;1.90;;;22.60;53.80;;;;;;5029365;28;20376;-66
2022/08/07 11:20:24;;;;;;;4.47;2.45;;;22.80;52.60;;;;;;5038233;28;20030;-68
2022/08/07 11:23:09;;;;;;;3.90;2.03;;;22.90;52.10;;;;;;5011450;28;20026;-69
2022/08/07 11:25:39;;;;;;;3.63;2.08;;;23.10;51.90;;;;;;5026969;28;20145;-68
2022/08/07 11:28:25;;;;;;;3.22;1.80;;;23.20;51.30;;;;;;5028786;28;20026;-69
2022/08/07 11:30:58;;;;;;;4.72;2.35;;;23.30;51.00;;;;;;5019318;28;20067;-69
2022/08/07 11:33:53;;;;;;;6.32;2.30;;;23.30;50.50;;;;;;5010791;28;20100;-70
2022/08/07 11:36:46;;;;;;;3.95;2.10;;;23.20;51.10;;;;;;5022367;28;20053;-70
2022/08/07 11:39:34;;;;;;;3.45;1.77;;;23.00;51.50;;;;;;5025923;28;20033;-69
2022/08/07 11:42:18;;;;;;;4.00;2.42;;;22.80;52.00;;;;;;5016768;28;20482;-70
2022/08/07 11:44:54;;;;;;;5.18;2.10;;;22.70;51.50;;;;;;5020910;28;20113;-68
2022/08/07 11:47:35;;;;;;;5.30;2.05;;;22.60;51.40;;;;;;5017115;28;20486;-66
2022/08/07 11:50:20;;;;;;;4.07;2.00;;;22.50;51.20;;;;;;5026765;28;20022;-65
2022/08/07 11:53:24;;;;;;;5.07;2.33;;;22.40;51.50;;;;;;5010993;28;20044;-68
2022/08/07 11:56:12;;;;;;;4.40;2.22;;;22.50;51.20;;;;;;5014235;28;20101;-69
2022/08/07 11:59:15;;;;;;;8.68;2.40;;;22.60;51.70;;;;;;5014395;28;20112;-70
2022/08/07 12:01:57;;;;;;;4.85;2.17;;;22.70;51.10;;;;;;5025340;28;20112;-63
2022/08/07 12:04:49;;;;;;;3.60;2.35;;;22.90;50.30;;;;;;5042643;28;20028;-67
2022/08/07 12:07:39;;;;;;;5.07;2.10;;;23.00;50.10;;;;;;5023716;28;20041;-70
2022/08/07 12:10:21;;;;;;;3.22;1.80;;;23.00;50.20;;;;;;5017468;28;20026;-69
2022/08/07 12:12:55;;;;;;;5.78;2.00;;;22.80;50.70;;;;;;5027879;28;20036;-62
2022/08/07 12:15:30;;;;;;;4.63;1.70;;;22.80;51.00;;;;;;5027969;28;20084;-61
2022/08/07 12:18:05;;;;;;;3.10;1.70;;;22.70;51.70;;;;;;5025543;28;20029;-61
2022/08/07 12:21:09;;;;;;;3.53;1.85;;;22.80;51.30;;;;;;5037125;28;20466;-61
2022/08/07 12:24:01;;;;;;;5.70;3.00;;;22.90;50.30;;;;;;5022859;28;20037;-62
2022/08/07 12:26:47;;;;;;;2.55;1.70;;;23.10;49.60;;;;;;5035042;28;20032;-61
2022/08/07 12:29:49;;;;;;;4.72;2.78;;;23.30;49.40;;;;;;5025747;28;20506;-61
2022/08/07 12:32:20;;;;;;;4.50;2.47;;;23.50;50.60;;;;;;5016274;28;20094;-61
2022/08/07 12:34:48;;;;;;;4.30;1.98;;;23.70;50.60;;;;;;5030138;28;20113;-61
2022/08/07 12:37:16;;;;;;;3.47;1.90;;;24.00;50.50;;;;;;5029261;28;20123;-61
2022/08/07 12:39:45;;;;;;;3.50;2.10;;;24.10;49.70;;;;;;5041952;28;20032;-61
2022/08/07 12:42:14;;;;;;;3.70;2.10;;;24.30;48.10;;;;;;5031895;28;20037;-60
2022/08/07 12:44:44;;;;;;;3.90;1.80;;;24.40;47.30;;;;;;5016847;28;20458;-61
2022/08/07 12:47:17;;;;;;;3.13;1.90;;;24.40;47.30;;;;;;5034249;28;20029;-60
2022/08/07 12:49:52;;;;;;;3.80;1.95;;;24.50;47.10;;;;;;5030591;28;20539;-61
2022/08/07 12:53:11;;;;;;;2.72;1.73;;;24.60;47.00;;;;;;5014552;28;20022;-62
2022/08/07 12:56:02;;;;;;;2.60;1.70;;;24.60;47.20;;;;;;4980483;28;20041;-61
2022/08/07 12:58:36;;;;;;;3.72;1.90;;;24.60;47.40;;;;;;5014871;28;20026;-64
2022/08/07 13:01:21;;;;;;;3.42;2.03;;;24.60;47.40;;;;;;5014263;28;20035;-67
2022/08/07 13:03:59;;;;;;;3.55;2.13;;;24.60;46.60;;;;;;5014143;28;20196;-68
2022/08/07 13:07:08;;;;;;;4.68;2.10;;;24.70;47.20;;;;;;5014709;28;20030;-65
2022/08/07 13:09:50;;;;;;;2.95;1.67;;;24.70;46.40;;;;;;4997296;28;20037;-70
2022/08/07 13:12:28;;;;;;;3.70;2.00;;;24.70;46.30;;;;;;5014336;28;20387;-62
2022/08/07 13:15:26;;;;;;;3.53;2.03;;;24.60;45.40;;;;;;5014402;28;20056;-71
2022/08/07 13:18:10;;;;;;;4.70;1.98;;;24.50;45.90;;;;;;5013509;28;20076;-67
2022/08/07 13:20:45;;;;;;;3.40;1.90;;;24.40;46.30;;;;;;5014569;28;20080;-69